sensor_id;sensor_type;location;lat;lon;timestamp;P1;durP1;ratioP1;P2;durP2;ratioP2
61397;SDS011;47267;48.130;-2.040;2023-03-11T00:02:14;3.90;;;2.80;;
61397;SDS011;47267;48.130;-2.040;2023-03-11T00:04:40;4.65;;;3.08;;
61397;SDS011;47267;48.130;-2.040;2023-03-11T00:07:06;4.53;;;2.80;;
61397;SDS011;47267;48.130;-2.040;2023-03-11T00:09:33;4.82;;;3.13;;
61397;SDS011;47267;48.130;-2.040;2023-03-11T00:11:59;4.60;;;2.60;;
61397;SDS011;47267;48.130;-2.040;2023-03-11T00:14:25;4.93;;;2.95;;
61397;SDS011;47267;48.130;-2.040;2023-03-11T00:16:50;5.05;;;2.80;;
61397;SDS011;47267;48.130;-2.040;2023-03-11T00:19:16;4.72;;;2.78;;
61397;SDS011;47267;48.130;-2.040;2023-03-11T00:21:42;4.00;;;2.80;;
61397;SDS011;47267;48.130;-2.040;2023-03-11T00:24:07;3.95;;;2.63;;
61397;SDS011;47267;48.130;-2.040;2023-03-11T00:26:33;4.15;;;2.88;;
61397;SDS011;47267;48.130;-2.040;2023-03-11T00:28:59;4.72;;;2.97;;
61397;SDS011;47267;48.130;-2.040;2023-03-11T00:31:25;3.63;;;2.40;;
61397;SDS011;47267;48.130;-2.040;2023-03-11T00:33:51;4.00;;;2.65;;
61397;SDS011;47267;48.130;-2.040;2023-03-11T00:36:27;3.80;;;2.80;;
61397;SDS011;47267;48.130;-2.040;2023-03-11T00:38:58;3.63;;;2.50;;
61397;SDS011;47267;48.130;-2.040;2023-03-11T00:41:27;4.18;;;2.72;;
61397;SDS011;47267;48.130;-2.040;2023-03-11T00:43:53;4.15;;;2.58;;
61397;SDS011;47267;48.130;-2.040;2023-03-11T00:46:19;3.65;;;2.15;;
61397;SDS011;47267;48.130;-2.040;2023-03-11T00:48:44;4.25;;;2.75;;
61397;SDS011;47267;48.130;-2.040;2023-03-11T00:51:11;3.78;;;2.33;;
61397;SDS011;47267;48.130;-2.040;2023-03-11T00:53:38;3.70;;;2.38;;
61397;SDS011;47267;48.130;-2.040;2023-03-11T00:56:08;4.20;;;2.30;;
61397;SDS011;47267;48.130;-2.040;2023-03-11T00:58:36;4.38;;;2.33;;
61397;SDS011;47267;48.130;-2.040;2023-03-11T01:01:12;4.25;;;2.67;;
61397;SDS011;47267;48.130;-2.040;2023-03-11T01:03:40;3.08;;;2.38;;
61397;SDS011;47267;48.130;-2.040;2023-03-11T01:06:06;3.00;;;2.30;;
61397;SDS011;47267;48.130;-2.040;2023-03-11T01:08:32;3.90;;;2.30;;
61397;SDS011;47267;48.130;-2.040;2023-03-11T01:10:58;4.90;;;2.53;;
61397;SDS011;47267;48.130;-2.040;2023-03-11T01:13:25;3.10;;;2.15;;
61397;SDS011;47267;48.130;-2.040;2023-03-11T01:15:52;3.55;;;2.28;;
61397;SDS011;47267;48.130;-2.040;2023-03-11T01:18:18;5.18;;;2.60;;
61397;SDS011;47267;48.130;-2.040;2023-03-11T01:20:44;3.83;;;2.33;;
61397;SDS011;47267;48.130;-2.040;2023-03-11T01:23:11;3.15;;;2.05;;
61397;SDS011;47267;48.130;-2.040;2023-03-11T01:25:37;3.33;;;2.38;;
61397;SDS011;47267;48.130;-2.040;2023-03-11T01:28:03;3.42;;;2.10;;
61397;SDS011;47267;48.130;-2.040;2023-03-11T01:30:30;3.50;;;2.20;;
61397;SDS011;47267;48.130;-2.040;2023-03-11T01:32:56;3.75;;;2.55;;
61397;SDS011;47267;48.130;-2.040;2023-03-11T01:35:23;2.90;;;2.17;;
61397;SDS011;47267;48.130;-2.040;2023-03-11T01:37:50;3.15;;;2.08;;
61397;SDS011;47267;48.130;-2.040;2023-03-11T01:40:21;3.55;;;2.13;;
61397;SDS011;47267;48.130;-2.040;2023-03-11T01:42:54;4.13;;;2.53;;
61397;SDS011;47267;48.130;-2.040;2023-03-11T01:48:00;3.42;;;2.20;;
61397;SDS011;47267;48.130;-2.040;2023-03-11T01:50:26;3.20;;;2.05;;
61397;SDS011;47267;48.130;-2.040;2023-03-11T01:53:01;4.57;;;2.00;;
61397;SDS011;47267;48.130;-2.040;2023-03-11T01:55:28;3.33;;;2.05;;
61397;SDS011;47267;48.130;-2.040;2023-03-11T01:57:56;3.53;;;2.05;;
61397;SDS011;47267;48.130;-2.040;2023-03-11T02:00:23;2.92;;;1.90;;
61397;SDS011;47267;48.130;-2.040;2023-03-11T02:02:52;3.22;;;2.35;;
61397;SDS011;47267;48.130;-2.040;2023-03-11T02:05:21;2.95;;;2.15;;
61397;SDS011;47267;48.130;-2.040;2023-03-11T02:07:48;3.95;;;2.35;;
61397;SDS011;47267;48.130;-2.040;2023-03-11T02:10:15;2.75;;;2.03;;
61397;SDS011;47267;48.130;-2.040;2023-03-11T02:12:42;4.43;;;2.00;;
61397;SDS011;47267;48.130;-2.040;2023-03-11T02:15:09;3.30;;;2.00;;
61397;SDS011;47267;48.130;-2.040;2023-03-11T02:17:37;4.03;;;2.05;;
61397;SDS011;47267;48.130;-2.040;2023-03-11T02:22:46;3.08;;;2.17;;
61397;SDS011;47267;48.130;-2.040;2023-03-11T02:28:04;3.33;;;1.80;;
61397;SDS011;47267;48.130;-2.040;2023-03-11T02:30:34;3.05;;;2.13;;
61397;SDS011;47267;48.130;-2.040;2023-03-11T02:33:00;3.53;;;2.17;;
61397;SDS011;47267;48.130;-2.040;2023-03-11T02:35:27;3.17;;;1.77;;
61397;SDS011;47267;48.130;-2.040;2023-03-11T02:37:52;2.83;;;2.08;;
61397;SDS011;47267;48.130;-2.040;2023-03-11T02:42:47;3.00;;;1.95;;
61397;SDS011;47267;48.130;-2.040;2023-03-11T02:45:17;3.25;;;1.77;;
61397;SDS011;47267;48.130;-2.040;2023-03-11T02:47:46;2.72;;;1.88;;
61397;SDS011;47267;48.130;-2.040;2023-03-11T02:50:13;2.70;;;1.75;;
61397;SDS011;47267;48.130;-2.040;2023-03-11T02:52:41;2.83;;;1.92;;
61397;SDS011;47267;48.130;-2.040;2023-03-11T02:55:07;3.10;;;1.77;;
61397;SDS011;47267;48.130;-2.040;2023-03-11T02:57:34;3.40;;;1.88;;
61397;SDS011;47267;48.130;-2.040;2023-03-11T03:00:01;2.85;;;1.83;;
61397;SDS011;47267;48.130;-2.040;2023-03-11T03:02:34;2.80;;;1.73;;
61397;SDS011;47267;48.130;-2.040;2023-03-11T03:05:00;2.92;;;2.08;;
61397;SDS011;47267;48.130;-2.040;2023-03-11T03:07:26;2.63;;;1.70;;
61397;SDS011;47267;48.130;-2.040;2023-03-11T03:09:52;2.58;;;1.55;;
61397;SDS011;47267;48.130;-2.040;2023-03-11T03:12:18;2.83;;;1.77;;
61397;SDS011;47267;48.130;-2.040;2023-03-11T03:14:43;2.80;;;1.85;;
61397;SDS011;47267;48.130;-2.040;2023-03-11T03:17:09;2.38;;;1.70;;
61397;SDS011;47267;48.130;-2.040;2023-03-11T03:19:35;3.50;;;1.60;;
61397;SDS011;47267;48.130;-2.040;2023-03-11T03:22:00;3.08;;;1.75;;
61397;SDS011;47267;48.130;-2.040;2023-03-11T03:24:26;3.13;;;1.80;;
61397;SDS011;47267;48.130;-2.040;2023-03-11T03:26:52;2.72;;;1.70;;
61397;SDS011;47267;48.130;-2.040;2023-03-11T03:29:17;3.25;;;1.67;;
61397;SDS011;47267;48.130;-2.040;2023-03-11T03:31:43;2.90;;;1.80;;
61397;SDS011;47267;48.130;-2.040;2023-03-11T03:34:09;2.42;;;1.48;;
61397;SDS011;47267;48.130;-2.040;2023-03-11T03:36:35;3.10;;;1.90;;
61397;SDS011;47267;48.130;-2.040;2023-03-11T03:39:01;2.60;;;1.55;;
61397;SDS011;47267;48.130;-2.040;2023-03-11T03:41:27;2.53;;;1.60;;
61397;SDS011;47267;48.130;-2.040;2023-03-11T03:43:53;3.03;;;1.70;;
61397;SDS011;47267;48.130;-2.040;2023-03-11T03:46:19;2.33;;;1.50;;
61397;SDS011;47267;48.130;-2.040;2023-03-11T03:48:45;2.20;;;1.40;;
61397;SDS011;47267;48.130;-2.040;2023-03-11T03:51:11;3.45;;;1.70;;
61397;SDS011;47267;48.130;-2.040;2023-03-11T03:53:38;2.53;;;1.60;;
61397;SDS011;47267;48.130;-2.040;2023-03-11T03:56:09;2.17;;;1.48;;
61397;SDS011;47267;48.130;-2.040;2023-03-11T03:58:36;2.55;;;1.48;;
61397;SDS011;47267;48.130;-2.040;2023-03-11T04:01:02;2.33;;;1.27;;
61397;SDS011;47267;48.130;-2.040;2023-03-11T04:03:29;2.22;;;1.58;;
61397;SDS011;47267;48.130;-2.040;2023-03-11T04:06:09;2.42;;;1.52;;
61397;SDS011;47267;48.130;-2.040;2023-03-11T04:08:51;2.58;;;1.45;;
61397;SDS011;47267;48.130;-2.040;2023-03-11T04:11:18;2.45;;;1.60;;
61397;SDS011;47267;48.130;-2.040;2023-03-11T04:13:44;2.30;;;1.40;;
61397;SDS011;47267;48.130;-2.040;2023-03-11T04:16:13;2.25;;;1.42;;
61397;SDS011;47267;48.130;-2.040;2023-03-11T04:18:44;2.47;;;1.35;;
61397;SDS011;47267;48.130;-2.040;2023-03-11T04:21:10;2.15;;;1.50;;
61397;SDS011;47267;48.130;-2.040;2023-03-11T04:23:35;2.53;;;1.50;;
61397;SDS011;47267;48.130;-2.040;2023-03-11T04:26:01;2.20;;;1.13;;
61397;SDS011;47267;48.130;-2.040;2023-03-11T04:28:28;2.17;;;1.38;;
61397;SDS011;47267;48.130;-2.040;2023-03-11T04:30:53;1.98;;;1.35;;
61397;SDS011;47267;48.130;-2.040;2023-03-11T04:33:19;1.58;;;1.23;;
61397;SDS011;47267;48.130;-2.040;2023-03-11T04:35:45;2.08;;;1.40;;
61397;SDS011;47267;48.130;-2.040;2023-03-11T04:38:10;1.98;;;1.20;;
61397;SDS011;47267;48.130;-2.040;2023-03-11T04:40:37;1.80;;;1.20;;
61397;SDS011;47267;48.130;-2.040;2023-03-11T04:43:03;1.65;;;1.10;;
61397;SDS011;47267;48.130;-2.040;2023-03-11T04:45:29;1.98;;;1.13;;
61397;SDS011;47267;48.130;-2.040;2023-03-11T04:47:54;1.83;;;1.33;;
61397;SDS011;47267;48.130;-2.040;2023-03-11T04:50:20;2.75;;;1.50;;
61397;SDS011;47267;48.130;-2.040;2023-03-11T04:52:46;1.63;;;1.13;;
61397;SDS011;47267;48.130;-2.040;2023-03-11T04:55:12;2.03;;;1.25;;
61397;SDS011;47267;48.130;-2.040;2023-03-11T04:57:42;1.73;;;0.95;;
61397;SDS011;47267;48.130;-2.040;2023-03-11T05:00:09;2.00;;;1.20;;
61397;SDS011;47267;48.130;-2.040;2023-03-11T05:02:37;1.42;;;1.02;;
61397;SDS011;47267;48.130;-2.040;2023-03-11T05:05:04;1.70;;;0.90;;
61397;SDS011;47267;48.130;-2.040;2023-03-11T05:07:31;1.75;;;1.13;;
61397;SDS011;47267;48.130;-2.040;2023-03-11T05:09:57;1.80;;;1.23;;
61397;SDS011;47267;48.130;-2.040;2023-03-11T05:12:22;1.60;;;1.00;;
61397;SDS011;47267;48.130;-2.040;2023-03-11T05:14:48;2.03;;;1.20;;
61397;SDS011;47267;48.130;-2.040;2023-03-11T05:17:14;1.92;;;1.20;;
61397;SDS011;47267;48.130;-2.040;2023-03-11T05:19:42;1.63;;;1.23;;
61397;SDS011;47267;48.130;-2.040;2023-03-11T05:22:08;1.70;;;1.00;;
61397;SDS011;47267;48.130;-2.040;2023-03-11T05:24:34;1.40;;;0.90;;
61397;SDS011;47267;48.130;-2.040;2023-03-11T05:26:59;2.08;;;1.15;;
61397;SDS011;47267;48.130;-2.040;2023-03-11T05:29:26;1.63;;;1.08;;
61397;SDS011;47267;48.130;-2.040;2023-03-11T05:31:51;1.58;;;0.90;;
61397;SDS011;47267;48.130;-2.040;2023-03-11T05:34:17;1.40;;;0.90;;
61397;SDS011;47267;48.130;-2.040;2023-03-11T05:36:43;1.60;;;0.90;;
61397;SDS011;47267;48.130;-2.040;2023-03-11T05:39:09;1.58;;;1.00;;
61397;SDS011;47267;48.130;-2.040;2023-03-11T05:41:35;1.33;;;0.70;;
61397;SDS011;47267;48.130;-2.040;2023-03-11T05:44:01;1.42;;;1.00;;
61397;SDS011;47267;48.130;-2.040;2023-03-11T05:46:27;1.17;;;0.70;;
61397;SDS011;47267;48.130;-2.040;2023-03-11T05:48:53;1.48;;;0.80;;
61397;SDS011;47267;48.130;-2.040;2023-03-11T05:51:19;1.23;;;0.90;;
61397;SDS011;47267;48.130;-2.040;2023-03-11T05:53:45;1.17;;;0.70;;
61397;SDS011;47267;48.130;-2.040;2023-03-11T05:56:19;1.05;;;0.80;;
61397;SDS011;47267;48.130;-2.040;2023-03-11T05:58:46;1.40;;;0.90;;
61397;SDS011;47267;48.130;-2.040;2023-03-11T06:01:13;1.60;;;0.90;;
61397;SDS011;47267;48.130;-2.040;2023-03-11T06:03:40;1.30;;;0.80;;
61397;SDS011;47267;48.130;-2.040;2023-03-11T06:06:07;1.17;;;0.80;;
61397;SDS011;47267;48.130;-2.040;2023-03-11T06:08:34;1.05;;;0.63;;
61397;SDS011;47267;48.130;-2.040;2023-03-11T06:11:01;1.30;;;0.90;;
61397;SDS011;47267;48.130;-2.040;2023-03-11T06:13:28;1.52;;;0.75;;
61397;SDS011;47267;48.130;-2.040;2023-03-11T06:15:54;1.20;;;0.65;;
61397;SDS011;47267;48.130;-2.040;2023-03-11T06:18:20;1.52;;;0.90;;
61397;SDS011;47267;48.130;-2.040;2023-03-11T06:20:46;1.45;;;0.85;;
61397;SDS011;47267;48.130;-2.040;2023-03-11T06:23:11;1.20;;;0.63;;
61397;SDS011;47267;48.130;-2.040;2023-03-11T06:25:37;1.00;;;0.60;;
61397;SDS011;47267;48.130;-2.040;2023-03-11T06:28:03;1.45;;;0.73;;
61397;SDS011;47267;48.130;-2.040;2023-03-11T06:30:28;1.80;;;0.90;;
61397;SDS011;47267;48.130;-2.040;2023-03-11T06:32:54;1.23;;;0.77;;
61397;SDS011;47267;48.130;-2.040;2023-03-11T06:35:20;0.90;;;0.70;;
61397;SDS011;47267;48.130;-2.040;2023-03-11T06:37:46;0.85;;;0.65;;
61397;SDS011;47267;48.130;-2.040;2023-03-11T06:40:11;1.30;;;0.70;;
61397;SDS011;47267;48.130;-2.040;2023-03-11T06:42:37;1.10;;;0.70;;
61397;SDS011;47267;48.130;-2.040;2023-03-11T06:45:03;0.98;;;0.60;;
61397;SDS011;47267;48.130;-2.040;2023-03-11T06:47:30;1.27;;;0.75;;
61397;SDS011;47267;48.130;-2.040;2023-03-11T06:49:55;1.13;;;0.60;;
61397;SDS011;47267;48.130;-2.040;2023-03-11T06:52:21;0.90;;;0.57;;
61397;SDS011;47267;48.130;-2.040;2023-03-11T06:54:47;1.15;;;0.70;;
61397;SDS011;47267;48.130;-2.040;2023-03-11T06:57:12;0.82;;;0.60;;
61397;SDS011;47267;48.130;-2.040;2023-03-11T06:59:38;0.90;;;0.57;;
61397;SDS011;47267;48.130;-2.040;2023-03-11T07:02:04;1.13;;;0.75;;
61397;SDS011;47267;48.130;-2.040;2023-03-11T07:04:31;1.20;;;0.70;;
61397;SDS011;47267;48.130;-2.040;2023-03-11T07:06:57;1.30;;;0.80;;
61397;SDS011;47267;48.130;-2.040;2023-03-11T07:09:23;0.82;;;0.63;;
61397;SDS011;47267;48.130;-2.040;2023-03-11T07:11:52;0.65;;;0.50;;
61397;SDS011;47267;48.130;-2.040;2023-03-11T07:14:18;1.27;;;0.77;;
61397;SDS011;47267;48.130;-2.040;2023-03-11T07:16:44;0.80;;;0.60;;
61397;SDS011;47267;48.130;-2.040;2023-03-11T07:19:10;0.50;;;0.40;;
61397;SDS011;47267;48.130;-2.040;2023-03-11T07:21:37;0.77;;;0.55;;
61397;SDS011;47267;48.130;-2.040;2023-03-11T07:24:03;3.10;;;0.60;;
61397;SDS011;47267;48.130;-2.040;2023-03-11T07:26:30;1.17;;;0.75;;
61397;SDS011;47267;48.130;-2.040;2023-03-11T07:28:56;0.98;;;0.60;;
61397;SDS011;47267;48.130;-2.040;2023-03-11T07:31:26;0.98;;;0.60;;
61397;SDS011;47267;48.130;-2.040;2023-03-11T07:33:56;0.85;;;0.57;;
61397;SDS011;47267;48.130;-2.040;2023-03-11T07:36:23;0.70;;;0.45;;
61397;SDS011;47267;48.130;-2.040;2023-03-11T07:38:56;0.77;;;0.60;;
61397;SDS011;47267;48.130;-2.040;2023-03-11T07:41:24;0.75;;;0.50;;
61397;SDS011;47267;48.130;-2.040;2023-03-11T07:43:53;1.13;;;0.80;;
61397;SDS011;47267;48.130;-2.040;2023-03-11T07:46:20;1.35;;;0.68;;
61397;SDS011;47267;48.130;-2.040;2023-03-11T07:48:47;1.35;;;0.60;;
61397;SDS011;47267;48.130;-2.040;2023-03-11T07:51:18;0.63;;;0.40;;
61397;SDS011;47267;48.130;-2.040;2023-03-11T07:53:48;0.90;;;0.60;;
61397;SDS011;47267;48.130;-2.040;2023-03-11T07:56:16;1.98;;;0.65;;
61397;SDS011;47267;48.130;-2.040;2023-03-11T07:58:43;2.28;;;0.60;;
61397;SDS011;47267;48.130;-2.040;2023-03-11T08:01:15;1.23;;;0.50;;
61397;SDS011;47267;48.130;-2.040;2023-03-11T08:03:47;2.10;;;0.80;;
61397;SDS011;47267;48.130;-2.040;2023-03-11T08:06:16;1.10;;;0.60;;
61397;SDS011;47267;48.130;-2.040;2023-03-11T08:08:44;1.50;;;0.65;;
61397;SDS011;47267;48.130;-2.040;2023-03-11T08:11:10;1.60;;;0.60;;
61397;SDS011;47267;48.130;-2.040;2023-03-11T08:13:37;1.73;;;0.68;;
61397;SDS011;47267;48.130;-2.040;2023-03-11T08:16:04;2.92;;;1.00;;
61397;SDS011;47267;48.130;-2.040;2023-03-11T08:18:31;1.83;;;0.80;;
61397;SDS011;47267;48.130;-2.040;2023-03-11T08:20:58;3.83;;;1.05;;
61397;SDS011;47267;48.130;-2.040;2023-03-11T08:23:23;3.78;;;1.48;;
61397;SDS011;47267;48.130;-2.040;2023-03-11T08:25:49;4.18;;;1.65;;
61397;SDS011;47267;48.130;-2.040;2023-03-11T08:28:15;4.00;;;1.63;;
61397;SDS011;47267;48.130;-2.040;2023-03-11T08:30:41;3.08;;;1.77;;
61397;SDS011;47267;48.130;-2.040;2023-03-11T08:33:06;3.35;;;1.60;;
61397;SDS011;47267;48.130;-2.040;2023-03-11T08:35:32;4.85;;;1.70;;
61397;SDS011;47267;48.130;-2.040;2023-03-11T08:37:58;5.28;;;1.60;;
61397;SDS011;47267;48.130;-2.040;2023-03-11T08:40:24;4.70;;;1.50;;
61397;SDS011;47267;48.130;-2.040;2023-03-11T08:42:49;11.13;;;2.50;;
61397;SDS011;47267;48.130;-2.040;2023-03-11T08:45:15;4.82;;;1.90;;
61397;SDS011;47267;48.130;-2.040;2023-03-11T08:47:41;3.45;;;1.50;;
61397;SDS011;47267;48.130;-2.040;2023-03-11T08:50:14;4.95;;;1.70;;
61397;SDS011;47267;48.130;-2.040;2023-03-11T08:52:41;6.85;;;1.63;;
61397;SDS011;47267;48.130;-2.040;2023-03-11T08:55:08;4.50;;;1.88;;
61397;SDS011;47267;48.130;-2.040;2023-03-11T08:57:41;4.70;;;1.55;;
61397;SDS011;47267;48.130;-2.040;2023-03-11T09:00:08;7.50;;;1.75;;
61397;SDS011;47267;48.130;-2.040;2023-03-11T09:02:34;5.28;;;1.80;;
61397;SDS011;47267;48.130;-2.040;2023-03-11T09:05:00;6.38;;;1.67;;
61397;SDS011;47267;48.130;-2.040;2023-03-11T09:07:26;16.65;;;2.10;;
61397;SDS011;47267;48.130;-2.040;2023-03-11T09:09:51;5.15;;;1.85;;
61397;SDS011;47267;48.130;-2.040;2023-03-11T09:12:18;5.43;;;1.70;;
61397;SDS011;47267;48.130;-2.040;2023-03-11T09:14:46;5.10;;;1.55;;
61397;SDS011;47267;48.130;-2.040;2023-03-11T09:17:14;3.75;;;1.75;;
61397;SDS011;47267;48.130;-2.040;2023-03-11T09:19:39;4.70;;;1.92;;
61397;SDS011;47267;48.130;-2.040;2023-03-11T09:22:05;2.40;;;1.38;;
61397;SDS011;47267;48.130;-2.040;2023-03-11T09:24:31;4.40;;;1.60;;
61397;SDS011;47267;48.130;-2.040;2023-03-11T09:26:58;4.32;;;1.80;;
61397;SDS011;47267;48.130;-2.040;2023-03-11T09:29:25;6.07;;;1.70;;
61397;SDS011;47267;48.130;-2.040;2023-03-11T09:31:50;2.45;;;1.40;;
61397;SDS011;47267;48.130;-2.040;2023-03-11T09:34:16;4.28;;;1.33;;
61397;SDS011;47267;48.130;-2.040;2023-03-11T09:36:42;3.65;;;1.60;;
61397;SDS011;47267;48.130;-2.040;2023-03-11T09:39:08;3.30;;;1.58;;
61397;SDS011;47267;48.130;-2.040;2023-03-11T09:52:00;4.03;;;1.60;;
61397;SDS011;47267;48.130;-2.040;2023-03-11T09:54:28;3.80;;;1.38;;
61397;SDS011;47267;48.130;-2.040;2023-03-11T09:57:03;2.58;;;1.13;;
61397;SDS011;47267;48.130;-2.040;2023-03-11T09:59:33;3.38;;;1.45;;
61397;SDS011;47267;48.130;-2.040;2023-03-11T10:02:02;3.75;;;1.65;;
61397;SDS011;47267;48.130;-2.040;2023-03-11T10:04:37;3.70;;;1.70;;
61397;SDS011;47267;48.130;-2.040;2023-03-11T10:07:11;3.20;;;1.30;;
61397;SDS011;47267;48.130;-2.040;2023-03-11T10:09:52;1.50;;;1.15;;
61397;SDS011;47267;48.130;-2.040;2023-03-11T10:18:13;3.10;;;1.50;;
61397;SDS011;47267;48.130;-2.040;2023-03-11T10:26:40;3.40;;;1.40;;
61397;SDS011;47267;48.130;-2.040;2023-03-11T10:31:53;3.05;;;1.30;;
61397;SDS011;47267;48.130;-2.040;2023-03-11T10:34:33;2.20;;;1.05;;
61397;SDS011;47267;48.130;-2.040;2023-03-11T10:37:24;2.40;;;1.10;;
61397;SDS011;47267;48.130;-2.040;2023-03-11T10:39:53;4.10;;;1.30;;
61397;SDS011;47267;48.130;-2.040;2023-03-11T10:42:22;3.97;;;1.35;;
61397;SDS011;47267;48.130;-2.040;2023-03-11T10:44:52;4.07;;;1.20;;
61397;SDS011;47267;48.130;-2.040;2023-03-11T10:47:19;2.50;;;1.40;;
61397;SDS011;47267;48.130;-2.040;2023-03-11T10:49:50;1.67;;;0.90;;
61397;SDS011;47267;48.130;-2.040;2023-03-11T10:52:16;3.25;;;1.20;;
61397;SDS011;47267;48.130;-2.040;2023-03-11T10:54:44;2.10;;;1.20;;
61397;SDS011;47267;48.130;-2.040;2023-03-11T11:00:14;4.57;;;1.30;;
61397;SDS011;47267;48.130;-2.040;2023-03-11T11:02:54;2.38;;;1.10;;
61397;SDS011;47267;48.130;-2.040;2023-03-11T11:05:26;6.88;;;1.08;;
61397;SDS011;47267;48.130;-2.040;2023-03-11T11:08:07;2.47;;;1.10;;
61397;SDS011;47267;48.130;-2.040;2023-03-11T11:10:36;3.30;;;1.13;;
61397;SDS011;47267;48.130;-2.040;2023-03-11T11:18:17;3.47;;;1.02;;
61397;SDS011;47267;48.130;-2.040;2023-03-11T11:23:40;2.55;;;0.90;;
61397;SDS011;47267;48.130;-2.040;2023-03-11T11:26:25;2.03;;;1.17;;
61397;SDS011;47267;48.130;-2.040;2023-03-11T11:29:04;2.03;;;1.10;;
61397;SDS011;47267;48.130;-2.040;2023-03-11T11:31:31;1.52;;;0.88;;
61397;SDS011;47267;48.130;-2.040;2023-03-11T11:33:57;2.28;;;0.98;;
61397;SDS011;47267;48.130;-2.040;2023-03-11T11:36:24;3.17;;;0.82;;
61397;SDS011;47267;48.130;-2.040;2023-03-11T11:38:57;2.58;;;1.00;;
61397;SDS011;47267;48.130;-2.040;2023-03-11T11:41:25;2.67;;;1.15;;
61397;SDS011;47267;48.130;-2.040;2023-03-11T11:46:36;1.40;;;0.90;;
61397;SDS011;47267;48.130;-2.040;2023-03-11T11:51:55;2.15;;;1.15;;
61397;SDS011;47267;48.130;-2.040;2023-03-11T11:54:39;2.53;;;1.35;;
61397;SDS011;47267;48.130;-2.040;2023-03-11T11:57:11;4.97;;;1.65;;
61397;SDS011;47267;48.130;-2.040;2023-03-11T11:59:38;3.80;;;1.95;;
61397;SDS011;47267;48.130;-2.040;2023-03-11T12:05:09;4.07;;;2.33;;
61397;SDS011;47267;48.130;-2.040;2023-03-11T12:15:37;9.80;;;3.00;;
61397;SDS011;47267;48.130;-2.040;2023-03-11T12:18:17;7.82;;;2.78;;
61397;SDS011;47267;48.130;-2.040;2023-03-11T12:20:57;7.30;;;2.03;;
61397;SDS011;47267;48.130;-2.040;2023-03-11T12:28:38;9.18;;;2.63;;
61397;SDS011;47267;48.130;-2.040;2023-03-11T12:31:07;4.15;;;1.85;;
61397;SDS011;47267;48.130;-2.040;2023-03-11T12:33:36;6.03;;;2.35;;
61397;SDS011;47267;48.130;-2.040;2023-03-11T12:36:22;3.75;;;1.77;;
61397;SDS011;47267;48.130;-2.040;2023-03-11T12:38:56;3.25;;;1.67;;
61397;SDS011;47267;48.130;-2.040;2023-03-11T12:47:31;7.95;;;2.13;;
61397;SDS011;47267;48.130;-2.040;2023-03-11T12:49:36;4.30;;;1.80;;
61397;SDS011;47267;48.130;-2.040;2023-03-11T12:52:22;5.68;;;2.17;;
61397;SDS011;47267;48.130;-2.040;2023-03-11T13:05:17;5.30;;;1.80;;
61397;SDS011;47267;48.130;-2.040;2023-03-11T13:08:15;3.80;;;1.70;;
61397;SDS011;47267;48.130;-2.040;2023-03-11T13:10:45;2.33;;;1.48;;
61397;SDS011;47267;48.130;-2.040;2023-03-11T13:18:39;3.47;;;1.60;;
61397;SDS011;47267;48.130;-2.040;2023-03-11T13:43:02;3.38;;;1.63;;
61397;SDS011;47267;48.130;-2.040;2023-03-11T13:45:30;2.90;;;1.67;;
61397;SDS011;47267;48.130;-2.040;2023-03-11T13:50:34;2.80;;;1.40;;
61397;SDS011;47267;48.130;-2.040;2023-03-11T13:53:02;2.15;;;1.30;;
61397;SDS011;47267;48.130;-2.040;2023-03-11T13:55:33;3.53;;;1.40;;
61397;SDS011;47267;48.130;-2.040;2023-03-11T14:01:00;3.10;;;1.20;;
61397;SDS011;47267;48.130;-2.040;2023-03-11T14:03:35;2.55;;;1.30;;
61397;SDS011;47267;48.130;-2.040;2023-03-11T14:06:06;3.03;;;1.50;;
61397;SDS011;47267;48.130;-2.040;2023-03-11T14:08:36;2.67;;;1.20;;
61397;SDS011;47267;48.130;-2.040;2023-03-11T14:11:13;2.55;;;1.23;;
61397;SDS011;47267;48.130;-2.040;2023-03-11T14:13:48;3.15;;;1.70;;
61397;SDS011;47267;48.130;-2.040;2023-03-11T14:16:28;2.28;;;1.25;;
61397;SDS011;47267;48.130;-2.040;2023-03-11T14:19:03;2.72;;;1.25;;
61397;SDS011;47267;48.130;-2.040;2023-03-11T14:21:36;2.15;;;1.33;;
61397;SDS011;47267;48.130;-2.040;2023-03-11T14:24:13;4.70;;;1.33;;
61397;SDS011;47267;48.130;-2.040;2023-03-11T14:26:46;3.70;;;1.60;;
61397;SDS011;47267;48.130;-2.040;2023-03-11T14:29:16;2.75;;;1.25;;
61397;SDS011;47267;48.130;-2.040;2023-03-11T14:31:45;3.38;;;1.40;;
61397;SDS011;47267;48.130;-2.040;2023-03-11T14:34:18;4.35;;;1.30;;
61397;SDS011;47267;48.130;-2.040;2023-03-11T14:36:49;2.80;;;1.30;;
61397;SDS011;47267;48.130;-2.040;2023-03-11T14:39:25;4.25;;;1.25;;
61397;SDS011;47267;48.130;-2.040;2023-03-11T14:41:58;2.55;;;1.10;;
61397;SDS011;47267;48.130;-2.040;2023-03-11T14:44:29;2.63;;;1.20;;
61397;SDS011;47267;48.130;-2.040;2023-03-11T14:49:40;3.42;;;1.40;;
61397;SDS011;47267;48.130;-2.040;2023-03-11T14:52:07;2.42;;;1.20;;
61397;SDS011;47267;48.130;-2.040;2023-03-11T14:54:42;2.15;;;1.35;;
61397;SDS011;47267;48.130;-2.040;2023-03-11T14:57:15;3.03;;;1.23;;
61397;SDS011;47267;48.130;-2.040;2023-03-11T15:02:29;3.30;;;1.33;;
61397;SDS011;47267;48.130;-2.040;2023-03-11T15:04:55;1.80;;;1.20;;
61397;SDS011;47267;48.130;-2.040;2023-03-11T15:07:23;3.40;;;1.60;;
61397;SDS011;47267;48.130;-2.040;2023-03-11T15:09:49;3.03;;;1.55;;
61397;SDS011;47267;48.130;-2.040;2023-03-11T15:12:34;2.33;;;1.10;;
61397;SDS011;47267;48.130;-2.040;2023-03-11T15:15:18;2.28;;;1.30;;
61397;SDS011;47267;48.130;-2.040;2023-03-11T15:17:54;2.75;;;1.30;;
61397;SDS011;47267;48.130;-2.040;2023-03-11T15:23:01;2.58;;;1.15;;
61397;SDS011;47267;48.130;-2.040;2023-03-11T15:25:30;3.00;;;1.10;;
61397;SDS011;47267;48.130;-2.040;2023-03-11T15:27:58;3.97;;;1.30;;
61397;SDS011;47267;48.130;-2.040;2023-03-11T15:32:51;3.08;;;1.08;;
61397;SDS011;47267;48.130;-2.040;2023-03-11T15:38:17;1.73;;;1.20;;
61397;SDS011;47267;48.130;-2.040;2023-03-11T15:40:59;4.28;;;1.30;;
61397;SDS011;47267;48.130;-2.040;2023-03-11T15:45:57;4.67;;;1.30;;
61397;SDS011;47267;48.130;-2.040;2023-03-11T15:48:24;2.15;;;1.30;;
61397;SDS011;47267;48.130;-2.040;2023-03-11T15:50:54;2.50;;;1.25;;
61397;SDS011;47267;48.130;-2.040;2023-03-11T15:53:24;3.05;;;1.00;;
61397;SDS011;47267;48.130;-2.040;2023-03-11T15:55:51;2.08;;;1.08;;
61397;SDS011;47267;48.130;-2.040;2023-03-11T15:58:19;2.80;;;1.10;;
61397;SDS011;47267;48.130;-2.040;2023-03-11T16:00:46;3.30;;;1.33;;
61397;SDS011;47267;48.130;-2.040;2023-03-11T16:03:17;2.50;;;1.27;;
61397;SDS011;47267;48.130;-2.040;2023-03-11T16:05:43;3.08;;;1.20;;
61397;SDS011;47267;48.130;-2.040;2023-03-11T16:08:09;2.92;;;1.20;;
61397;SDS011;47267;48.130;-2.040;2023-03-11T16:10:36;3.00;;;1.10;;
61397;SDS011;47267;48.130;-2.040;2023-03-11T16:13:01;3.13;;;1.20;;
61397;SDS011;47267;48.130;-2.040;2023-03-11T16:15:29;2.75;;;1.30;;
61397;SDS011;47267;48.130;-2.040;2023-03-11T16:17:57;3.58;;;1.30;;
61397;SDS011;47267;48.130;-2.040;2023-03-11T16:20:24;3.70;;;1.30;;
61397;SDS011;47267;48.130;-2.040;2023-03-11T16:22:52;3.67;;;1.40;;
61397;SDS011;47267;48.130;-2.040;2023-03-11T16:25:22;3.65;;;1.20;;
61397;SDS011;47267;48.130;-2.040;2023-03-11T16:28:02;3.38;;;1.20;;
61397;SDS011;47267;48.130;-2.040;2023-03-11T16:30:29;2.20;;;1.13;;
61397;SDS011;47267;48.130;-2.040;2023-03-11T16:32:55;3.83;;;1.40;;
61397;SDS011;47267;48.130;-2.040;2023-03-11T16:35:21;4.57;;;1.20;;
61397;SDS011;47267;48.130;-2.040;2023-03-11T16:37:47;2.38;;;1.15;;
61397;SDS011;47267;48.130;-2.040;2023-03-11T16:40:15;2.78;;;1.10;;
61397;SDS011;47267;48.130;-2.040;2023-03-11T16:42:42;2.33;;;0.93;;
61397;SDS011;47267;48.130;-2.040;2023-03-11T16:45:13;2.47;;;1.00;;
61397;SDS011;47267;48.130;-2.040;2023-03-11T16:47:39;3.15;;;1.20;;
61397;SDS011;47267;48.130;-2.040;2023-03-11T16:50:05;2.10;;;1.15;;
61397;SDS011;47267;48.130;-2.040;2023-03-11T16:52:32;2.90;;;1.00;;
61397;SDS011;47267;48.130;-2.040;2023-03-11T16:54:58;2.40;;;1.00;;